createdAt,value
2022-10-06T00:00:53.425Z,101088.41
2022-10-06T00:03:23.141Z,101087.59
2022-10-06T00:05:51.305Z,101095.41
2022-10-06T00:08:20.058Z,101088.72
2022-10-06T00:10:47.746Z,101083.91
2022-10-06T00:13:15.464Z,101090.41
2022-10-06T00:15:43.218Z,101092.09
2022-10-06T00:18:12.422Z,101090.22
2022-10-06T00:20:43.243Z,101090.84
2022-10-06T00:23:11.206Z,101080.16
2022-10-06T00:25:40.072Z,101094.41
2022-10-06T00:28:07.775Z,101093.50
2022-10-06T00:30:35.467Z,101093.91
2022-10-06T00:33:04.509Z,101102.28
2022-10-06T00:35:35.158Z,101107.88
2022-10-06T00:38:03.301Z,101111.81
2022-10-06T00:40:32.622Z,101107.72
2022-10-06T00:43:02.417Z,101113.31
2022-10-06T00:45:34.729Z,101107.00
2022-10-06T00:48:06.179Z,101122.03
2022-10-06T00:50:36.648Z,101125.22
2022-10-06T00:53:07.319Z,101126.22
2022-10-06T00:55:35.150Z,101139.31
2022-10-06T00:58:03.165Z,101138.50
2022-10-06T01:00:30.970Z,101143.25
2022-10-06T01:03:06.052Z,101141.88
2022-10-06T01:05:41.605Z,101151.63
2022-10-06T01:08:09.770Z,101149.63
2022-10-06T01:10:37.567Z,101142.03
2022-10-06T01:13:06.556Z,101152.28
2022-10-06T01:15:34.966Z,101152.47
2022-10-06T01:18:07.156Z,101158.22
2022-10-06T01:20:38.373Z,101148.75
2022-10-06T01:23:10.094Z,101153.97
2022-10-06T01:25:38.382Z,101160.69
2022-10-06T01:28:08.812Z,101163.63
2022-10-06T01:30:40.546Z,101170.56
2022-10-06T01:33:08.521Z,101153.88
2022-10-06T01:35:36.275Z,101160.75
2022-10-06T01:38:04.218Z,101170.25
2022-10-06T01:40:33.328Z,101177.16
2022-10-06T01:43:01.034Z,101176.91
2022-10-06T01:45:28.984Z,101194.06
2022-10-06T01:47:56.761Z,101191.44
2022-10-06T01:50:24.505Z,101202.44
2022-10-06T01:52:52.235Z,101205.78
2022-10-06T01:55:19.922Z,101206.31
2022-10-06T01:57:49.015Z,101206.91
2022-10-06T02:00:16.814Z,101215.09
2022-10-06T02:02:44.829Z,101214.44
2022-10-06T02:05:14.509Z,101229.59
2022-10-06T02:07:42.611Z,101215.50
2022-10-06T02:10:11.003Z,101235.16
2022-10-06T02:12:39.167Z,101240.25
2022-10-06T02:15:10.553Z,101232.66
2022-10-06T02:17:39.032Z,101255.28
2022-10-06T02:20:07.385Z,101263.09
2022-10-06T02:22:38.581Z,101267.44
2022-10-06T02:25:06.730Z,101273.91
2022-10-06T02:27:34.485Z,101281.44
2022-10-06T02:30:02.398Z,101294.13
2022-10-06T02:32:35.367Z,101278.09
2022-10-06T02:35:03.715Z,101287.13
2022-10-06T02:37:31.477Z,101296.69
2022-10-06T02:39:59.241Z,101308.03
2022-10-06T02:42:26.908Z,101305.59
2022-10-06T02:44:54.649Z,101300.72
2022-10-06T02:47:22.636Z,101314.22
2022-10-06T02:49:51.709Z,101320.38
2022-10-06T02:52:19.457Z,101313.13
2022-10-06T02:54:47.173Z,101329.84
2022-10-06T02:57:16.280Z,101329.47
2022-10-06T02:59:43.965Z,101325.13
2022-10-06T03:02:11.782Z,101334.16
2022-10-06T03:04:39.507Z,101337.31
2022-10-06T03:07:08.553Z,101323.38
2022-10-06T03:09:36.551Z,101338.81
2022-10-06T03:12:04.550Z,101354.44
2022-10-06T03:14:32.218Z,101353.09
2022-10-06T03:17:00.359Z,101366.78
2022-10-06T03:19:28.059Z,101366.16
2022-10-06T03:21:55.787Z,101376.03
2022-10-06T03:24:24.812Z,101377.91
2022-10-06T03:26:52.541Z,101389.84
2022-10-06T03:29:20.303Z,101386.53
2022-10-06T03:31:48.308Z,101394.06
2022-10-06T03:34:16.131Z,101382.34
2022-10-06T03:36:44.090Z,101391.88
2022-10-06T03:39:11.916Z,101389.44
2022-10-06T03:41:41.091Z,101395.31
2022-10-06T03:44:08.841Z,101400.19
2022-10-06T03:46:37.466Z,101402.47
2022-10-06T03:49:05.705Z,101407.72
2022-10-06T03:51:36.411Z,101420.34
2022-10-06T03:54:04.233Z,101425.97
2022-10-06T03:56:33.467Z,101426.19
2022-10-06T03:59:04.629Z,101432.19
2022-10-06T04:01:34.399Z,101439.50
2022-10-06T04:04:03.402Z,101441.59
2022-10-06T04:06:32.989Z,101439.06
2022-10-06T04:09:01.429Z,101434.59
2022-10-06T04:11:31.548Z,101441.34
2022-10-06T04:14:01.191Z,101445.56
2022-10-06T04:16:32.325Z,101453.19
2022-10-06T04:19:01.907Z,101453.25
2022-10-06T04:21:31.784Z,101459.66
2022-10-06T04:24:00.978Z,101462.22
2022-10-06T04:26:31.436Z,101471.22
2022-10-06T04:29:00.521Z,101478.59
2022-10-06T04:31:32.850Z,101478.38
2022-10-06T04:34:01.909Z,101481.34
2022-10-06T04:36:32.141Z,101476.69
2022-10-06T04:39:02.673Z,101479.91
2022-10-06T04:41:32.801Z,101484.81
2022-10-06T04:44:00.907Z,101491.59
2022-10-06T04:46:45.451Z,101496.25
2022-10-06T04:49:19.971Z,101494.78
2022-10-06T04:51:49.318Z,101507.13
2022-10-06T04:54:17.165Z,101522.75
2022-10-06T04:56:44.922Z,101527.56
2022-10-06T04:59:12.722Z,101518.13
2022-10-06T05:01:40.456Z,101529.47
2022-10-06T05:04:08.339Z,101523.06
2022-10-06T05:06:39.669Z,101523.75
2022-10-06T05:09:09.413Z,101527.41
2022-10-06T05:11:37.389Z,101534.41
2022-10-06T05:14:05.461Z,101547.72
2022-10-06T05:16:33.283Z,101549.41
2022-10-06T05:19:01.081Z,101563.53
2022-10-06T05:21:30.260Z,101565.16
2022-10-06T05:23:59.792Z,101563.28
2022-10-06T05:26:30.062Z,101565.59
2022-10-06T05:28:58.498Z,101578.19
2022-10-06T05:31:28.518Z,101584.06
2022-10-06T05:33:57.308Z,101578.34
2022-10-06T05:36:27.489Z,101594.97
2022-10-06T05:38:56.093Z,101599.97
2022-10-06T05:41:26.445Z,101605.66
2022-10-06T05:43:54.694Z,101613.63
2022-10-06T05:46:25.143Z,101615.34
2022-10-06T05:48:55.487Z,101623.28
2022-10-06T05:51:30.111Z,101614.66
2022-10-06T05:53:58.741Z,101620.38
2022-10-06T05:56:28.827Z,101627.25
2022-10-06T05:58:58.014Z,101626.22
2022-10-06T06:01:28.819Z,101630.63
2022-10-06T06:03:59.463Z,101632.13
2022-10-06T06:06:29.439Z,101651.03
2022-10-06T06:08:59.492Z,101654.81
2022-10-06T06:11:31.263Z,101662.59
2022-10-06T06:13:59.918Z,101669.72
2022-10-06T06:16:29.489Z,101671.41
2022-10-06T06:18:57.689Z,101683.56
2022-10-06T06:21:26.165Z,101685.84
2022-10-06T06:23:55.748Z,101679.75
2022-10-06T06:26:25.206Z,101690.28
2022-10-06T06:28:56.031Z,101695.75
2022-10-06T06:31:26.731Z,101693.47
2022-10-06T06:33:56.316Z,101696.38
2022-10-06T06:36:25.867Z,101699.13
2022-10-06T06:38:55.295Z,101711.13
2022-10-06T06:41:24.842Z,101726.66
2022-10-06T06:43:54.629Z,101732.38
2022-10-06T06:46:24.939Z,101743.53
2022-10-06T06:48:53.706Z,101740.16
2022-10-06T06:51:23.026Z,101747.09
2022-10-06T06:53:51.179Z,101750.25
2022-10-06T06:56:19.287Z,101767.91
2022-10-06T06:58:48.930Z,101767.91
2022-10-06T07:01:20.309Z,101776.34
2022-10-06T07:03:57.589Z,101780.97
2022-10-06T07:06:28.746Z,101777.19
2022-10-06T07:08:58.037Z,101773.00
2022-10-06T07:11:27.921Z,101782.88
2022-10-06T07:13:57.633Z,101785.81
2022-10-06T07:16:44.460Z,101780.16
2022-10-06T07:19:30.626Z,101784.75
2022-10-06T07:22:18.464Z,101789.63
2022-10-06T07:25:04.466Z,101794.00
2022-10-06T07:27:33.561Z,101799.06
2022-10-06T07:30:01.381Z,101796.75
2022-10-06T07:32:31.146Z,101808.09
2022-10-06T07:35:00.607Z,101819.66
2022-10-06T07:37:29.703Z,101811.88
2022-10-06T07:39:57.433Z,101810.63
2022-10-06T07:42:25.297Z,101804.28
2022-10-06T07:45:07.113Z,101803.66
2022-10-06T07:47:38.071Z,101815.66
2022-10-06T07:50:06.556Z,101822.38
2022-10-06T07:52:36.423Z,101832.69
2022-10-06T07:55:04.612Z,101826.38
2022-10-06T07:57:35.381Z,101829.13
2022-10-06T08:00:05.471Z,101832.50
2022-10-06T08:02:35.793Z,101845.72
2022-10-06T08:05:07.088Z,101842.31
2022-10-06T08:07:35.010Z,101849.31
2022-10-06T08:10:02.839Z,101843.41
2022-10-06T08:12:37.839Z,101852.47
2022-10-06T08:15:07.733Z,101841.31
2022-10-06T08:17:37.047Z,101858.13
2022-10-06T08:20:08.313Z,101852.06
2022-10-06T08:22:36.647Z,101861.13
2022-10-06T08:25:06.618Z,101873.13
2022-10-06T08:27:35.853Z,101859.88
2022-10-06T08:30:04.482Z,101872.91
2022-10-06T08:32:33.120Z,101881.53
2022-10-06T08:35:00.982Z,101881.75
2022-10-06T08:37:30.163Z,101886.78
2022-10-06T08:39:57.962Z,101885.31
2022-10-06T08:42:35.421Z,101898.38
2022-10-06T08:45:07.171Z,101898.78
2022-10-06T08:47:37.061Z,101897.31
2022-10-06T08:50:07.215Z,101893.91
2022-10-06T08:52:49.351Z,101904.66
2022-10-06T08:55:30.490Z,101899.56
2022-10-06T09:00:44.553Z,101902.28
2022-10-06T09:03:23.611Z,101905.25
2022-10-06T09:05:54.046Z,101913.44
2022-10-06T09:08:39.715Z,101886.53
2022-10-06T09:11:20.606Z,101922.41
2022-10-06T09:13:53.997Z,101915.84
2022-10-06T09:16:29.033Z,101908.75
2022-10-06T09:19:09.146Z,101918.03
2022-10-06T09:21:42.265Z,101923.03
2022-10-06T09:24:16.594Z,101927.66
2022-10-06T09:26:46.506Z,101936.91
2022-10-06T09:29:15.141Z,101925.88
2022-10-06T09:31:44.513Z,101916.75
2022-10-06T09:34:22.552Z,101922.97
2022-10-06T09:37:02.872Z,101930.59
2022-10-06T09:39:36.480Z,101925.75
2022-10-06T09:42:08.053Z,101915.69
2022-10-06T09:44:47.014Z,101921.75
2022-10-06T09:47:34.651Z,101930.81
2022-10-06T09:50:22.651Z,101927.41
2022-10-06T09:53:12.583Z,101922.41
2022-10-06T09:55:51.298Z,101918.50
2022-10-06T09:58:32.665Z,101923.06
2022-10-06T10:01:02.979Z,101928.28
2022-10-06T10:04:08.314Z,101925.81
2022-10-06T10:06:36.774Z,101918.28
2022-10-06T10:09:22.128Z,101920.31
2022-10-06T10:12:31.453Z,101929.69
2022-10-06T10:15:04.005Z,101929.72
2022-10-06T10:17:37.393Z,101929.09
2022-10-06T10:20:20.809Z,101931.00
2022-10-06T10:22:49.469Z,101932.63
2022-10-06T10:25:30.487Z,101937.47
2022-10-06T10:28:07.235Z,101912.72
2022-10-06T10:30:45.246Z,101931.13
2022-10-06T10:33:19.307Z,101925.81
2022-10-06T10:35:52.905Z,101931.03
2022-10-06T10:38:22.363Z,101929.97
2022-10-06T10:40:55.612Z,101934.47
2022-10-06T10:43:31.842Z,101927.72
2022-10-06T10:46:06.697Z,101932.09
2022-10-06T10:48:40.351Z,101928.19
2022-10-06T10:51:14.175Z,101929.97
2022-10-06T10:53:49.462Z,101928.84
2022-10-06T10:56:21.378Z,101931.72
2022-10-06T10:58:55.199Z,101923.31
2022-10-06T11:01:35.031Z,101931.59
2022-10-06T11:04:02.971Z,101921.84
2022-10-06T11:06:54.199Z,101933.22
2022-10-06T11:09:28.250Z,101931.03
2022-10-06T11:12:13.344Z,101928.94
2022-10-06T11:14:54.566Z,101926.41
2022-10-06T11:17:43.980Z,101925.94
2022-10-06T11:20:37.840Z,101926.00
2022-10-06T11:23:23.654Z,101928.34
2022-10-06T11:26:03.986Z,101924.81
2022-10-06T11:28:37.473Z,101920.75
2022-10-06T11:31:21.793Z,101921.28
2022-10-06T11:33:54.223Z,101922.44
2022-10-06T11:36:34.881Z,101915.94
2022-10-06T11:39:21.133Z,101910.38
2022-10-06T11:41:53.680Z,101907.41
2022-10-06T11:44:32.568Z,101899.91
2022-10-06T11:47:06.521Z,101900.22
2022-10-06T11:49:56.779Z,101902.78
2022-10-06T11:52:45.445Z,101899.59
2022-10-06T11:55:23.809Z,101898.84
2022-10-06T11:58:37.559Z,101894.03
2022-10-06T12:01:02.035Z,101892.91
2022-10-06T12:03:48.739Z,101895.25
2022-10-06T12:07:01.965Z,101890.00
2022-10-06T12:10:16.078Z,101890.69
2022-10-06T12:13:07.018Z,101882.97
2022-10-06T12:19:23.296Z,101885.34
2022-10-06T12:22:00.455Z,101877.72
2022-10-06T12:24:38.391Z,101877.94
2022-10-06T12:27:28.113Z,101881.41
2022-10-06T12:30:02.380Z,101872.84
2022-10-06T12:32:49.854Z,101871.59
2022-10-06T12:35:25.850Z,101856.72
2022-10-06T12:37:54.861Z,101865.78
2022-10-06T12:40:54.481Z,101874.56
2022-10-06T12:43:32.850Z,101863.97
2022-10-06T12:46:07.974Z,101858.31
2022-10-06T12:48:40.696Z,101859.00
2022-10-06T12:51:25.654Z,101851.91
2022-10-06T12:54:00.593Z,101858.06
2022-10-06T12:56:31.678Z,101859.38
2022-10-06T12:58:59.642Z,101862.28
2022-10-06T13:01:28.409Z,101859.53
2022-10-06T13:03:56.292Z,101860.59
2022-10-06T13:06:26.316Z,101849.03
2022-10-06T13:09:07.078Z,101848.59
2022-10-06T13:11:34.804Z,101850.00
2022-10-06T13:14:10.806Z,101846.63
2022-10-06T13:16:41.671Z,101854.16
2022-10-06T13:19:17.977Z,101856.13
2022-10-06T13:21:48.197Z,101854.31
2022-10-06T13:24:20.506Z,101849.53
2022-10-06T13:26:49.125Z,101848.97
2022-10-06T13:29:22.703Z,101852.28
2022-10-06T13:31:53.191Z,101844.16
2022-10-06T13:34:28.651Z,101839.22
2022-10-06T13:37:00.396Z,101839.06
2022-10-06T13:39:31.807Z,101844.09
2022-10-06T13:42:03.523Z,101838.13
2022-10-06T13:44:35.886Z,101845.53
2022-10-06T13:47:08.278Z,101835.84
2022-10-06T13:49:44.004Z,101838.13
2022-10-06T13:52:19.857Z,101837.13
2022-10-06T13:54:52.184Z,101833.09
2022-10-06T13:57:37.930Z,101842.31
2022-10-06T14:00:16.141Z,101843.88
2022-10-06T14:02:46.035Z,101841.53
2022-10-06T14:05:31.691Z,101837.72
2022-10-06T14:08:03.399Z,101840.63
2022-10-06T14:10:37.742Z,101829.91
2022-10-06T14:13:09.775Z,101839.38
2022-10-06T14:15:46.047Z,101837.22
2022-10-06T14:18:20.473Z,101818.75
2022-10-06T14:20:49.786Z,101824.00
2022-10-06T14:23:39.923Z,101823.81
2022-10-06T14:26:08.390Z,101821.88
2022-10-06T14:28:36.142Z,101829.56
2022-10-06T14:31:05.027Z,101824.91
2022-10-06T14:33:33.936Z,101830.78
2022-10-06T14:36:02.554Z,101824.91
2022-10-06T14:38:30.573Z,101825.72
2022-10-06T14:41:02.601Z,101815.31
2022-10-06T14:43:30.342Z,101822.72
2022-10-06T14:46:02.630Z,101812.16
2022-10-06T14:48:33.317Z,101814.78
2022-10-06T14:51:03.066Z,101819.59
2022-10-06T14:53:31.463Z,101817.63
2022-10-06T14:56:03.586Z,101819.75
2022-10-06T14:58:31.832Z,101809.16
2022-10-06T15:01:06.024Z,101802.78
2022-10-06T15:03:34.192Z,101800.22
2022-10-06T15:06:21.242Z,101794.56
2022-10-06T15:08:52.659Z,101793.59
2022-10-06T15:11:24.113Z,101790.69
2022-10-06T15:13:53.769Z,101786.00
2022-10-06T15:16:23.057Z,101773.47
2022-10-06T15:18:51.440Z,101785.69
2022-10-06T15:21:21.068Z,101772.47
2022-10-06T15:23:49.105Z,101769.91
2022-10-06T15:26:34.395Z,101759.69
2022-10-06T15:29:03.750Z,101764.47
2022-10-06T15:31:33.889Z,101757.13
2022-10-06T15:34:03.469Z,101761.50
2022-10-06T15:36:33.454Z,101760.28
2022-10-06T15:39:05.974Z,101763.22
2022-10-06T15:41:35.035Z,101759.09
2022-10-06T15:44:04.916Z,101749.94
2022-10-06T15:46:34.441Z,101752.25
2022-10-06T15:49:05.183Z,101758.66
2022-10-06T15:51:36.544Z,101775.63
2022-10-06T15:54:06.135Z,101779.13
2022-10-06T15:56:34.038Z,101794.75
2022-10-06T15:59:01.840Z,101794.34
2022-10-06T16:01:39.978Z,101784.03
2022-10-06T16:04:15.656Z,101791.13
2022-10-06T16:06:50.652Z,101786.31
2022-10-06T16:09:19.731Z,101794.56
2022-10-06T16:11:48.685Z,101790.75
2022-10-06T16:14:17.473Z,101789.94
2022-10-06T16:16:48.345Z,101797.72
2022-10-06T16:19:17.590Z,101797.03
2022-10-06T16:21:47.781Z,101794.59
2022-10-06T16:24:16.043Z,101789.66
2022-10-06T16:26:44.175Z,101793.06
2022-10-06T16:29:12.417Z,101792.66
2022-10-06T16:31:40.714Z,101788.16
2022-10-06T16:34:09.977Z,101800.28
2022-10-06T16:36:38.107Z,101801.41
2022-10-06T16:39:07.987Z,101800.97
2022-10-06T16:41:35.757Z,101805.72
2022-10-06T16:44:03.549Z,101799.03
2022-10-06T16:46:33.171Z,101811.22
2022-10-06T16:49:02.551Z,101812.72
2022-10-06T16:51:33.176Z,101813.38
2022-10-06T16:54:02.833Z,101811.25
2022-10-06T16:56:32.274Z,101807.81
2022-10-06T16:59:01.455Z,101815.78
2022-10-06T17:01:32.028Z,101818.38
2022-10-06T17:04:02.635Z,101825.03
2022-10-06T17:06:32.451Z,101824.25
2022-10-06T17:09:00.395Z,101823.16
2022-10-06T17:11:28.349Z,101832.09
2022-10-06T17:13:57.963Z,101827.63
2022-10-06T17:16:27.411Z,101825.09
2022-10-06T17:18:56.620Z,101832.31
2022-10-06T17:21:46.241Z,101832.75
2022-10-06T17:24:14.697Z,101834.69
2022-10-06T17:26:44.780Z,101838.97
2022-10-06T17:29:15.967Z,101843.84
2022-10-06T17:31:44.449Z,101850.56
2022-10-06T17:34:20.472Z,101848.50
2022-10-06T17:36:51.243Z,101845.22
2022-10-06T17:39:22.515Z,101842.44
2022-10-06T17:41:51.839Z,101839.44
2022-10-06T17:44:22.379Z,101845.19
2022-10-06T17:46:52.316Z,101851.09
2022-10-06T17:49:21.595Z,101849.75
2022-10-06T17:51:50.611Z,101862.72
2022-10-06T17:54:21.434Z,101856.19
2022-10-06T17:56:51.310Z,101855.94
2022-10-06T17:59:21.606Z,101865.38
2022-10-06T18:01:51.252Z,101855.25
2022-10-06T18:04:19.910Z,101854.50
2022-10-06T18:06:48.978Z,101864.72
2022-10-06T18:09:17.131Z,101860.47
2022-10-06T18:11:56.341Z,101862.59
2022-10-06T18:14:26.765Z,101857.22
2022-10-06T18:16:57.445Z,101852.03
2022-10-06T18:19:28.661Z,101855.66
2022-10-06T18:21:58.185Z,101857.31
2022-10-06T18:24:28.109Z,101860.38
2022-10-06T18:27:03.167Z,101861.63
2022-10-06T18:29:33.207Z,101855.84
2022-10-06T18:32:34.827Z,101864.31
2022-10-06T18:37:37.803Z,101856.03
2022-10-06T18:40:08.758Z,101847.22
2022-10-06T18:42:38.340Z,101853.44
2022-10-06T18:45:24.933Z,101860.78
2022-10-06T18:48:10.168Z,101856.94
2022-10-06T18:50:39.433Z,101850.59
2022-10-06T18:53:07.789Z,101851.34
2022-10-06T18:55:35.627Z,101854.94
2022-10-06T18:58:08.173Z,101850.06
2022-10-06T19:00:36.521Z,101859.00
2022-10-06T19:03:05.484Z,101854.69
2022-10-06T19:05:56.150Z,101854.19
2022-10-06T19:08:41.474Z,101866.34
2022-10-06T19:11:46.019Z,101868.91
2022-10-06T19:14:19.086Z,101855.16
2022-10-06T19:16:54.489Z,101834.91
2022-10-06T19:19:31.235Z,101837.34
2022-10-06T19:22:02.540Z,101852.94
2022-10-06T19:24:33.727Z,101863.25
2022-10-06T19:27:02.746Z,101861.22
2022-10-06T19:29:37.162Z,101868.03
2022-10-06T19:32:10.177Z,101873.22
2022-10-06T19:34:38.992Z,101872.22
2022-10-06T19:37:13.179Z,101865.63
2022-10-06T19:39:47.139Z,101829.31
2022-10-06T19:42:34.818Z,101865.34
2022-10-06T19:45:09.670Z,101865.53
2022-10-06T19:47:38.879Z,101880.97
2022-10-06T19:50:12.578Z,101875.53
2022-10-06T19:52:46.564Z,101868.94
2022-10-06T19:55:16.364Z,101870.97
2022-10-06T19:57:46.493Z,101887.03
2022-10-06T20:00:16.976Z,101877.22
2022-10-06T20:02:50.823Z,101887.91
2022-10-06T20:05:19.514Z,101858.94
2022-10-06T20:07:49.573Z,101841.53
2022-10-06T20:10:18.727Z,101871.63
2022-10-06T20:12:49.416Z,101890.09
2022-10-06T20:15:19.695Z,101855.41
2022-10-06T20:17:47.924Z,101886.38
2022-10-06T20:20:16.036Z,101890.44
2022-10-06T20:22:44.596Z,101881.97
2022-10-06T20:25:12.465Z,101898.38
2022-10-06T20:27:40.325Z,101888.56
2022-10-06T20:30:09.578Z,101893.47
2022-10-06T20:32:39.156Z,101900.25
2022-10-06T20:35:07.994Z,101895.84
2022-10-06T20:37:41.844Z,101868.94
2022-10-06T20:40:28.550Z,101857.25
2022-10-06T20:42:59.063Z,101887.19
2022-10-06T20:45:27.013Z,101879.38
2022-10-06T20:47:59.572Z,101884.16
2022-10-06T20:50:27.353Z,101886.47
2022-10-06T20:52:55.056Z,101886.16
2022-10-06T20:55:22.914Z,101888.56
2022-10-06T20:57:50.833Z,101884.31
2022-10-06T21:00:19.064Z,101878.03
2022-10-06T21:02:46.905Z,101872.09
2022-10-06T21:05:16.414Z,101884.47
2022-10-06T21:07:45.341Z,101893.09
2022-10-06T21:10:14.712Z,101882.06
2022-10-06T21:12:48.406Z,101880.56
2022-10-06T21:15:16.424Z,101878.03
2022-10-06T21:17:46.532Z,101872.38
2022-10-06T21:20:16.132Z,101882.38
2022-10-06T21:22:43.888Z,101882.72
2022-10-06T21:25:12.275Z,101880.69
2022-10-06T21:27:40.162Z,101870.72
2022-10-06T21:30:10.188Z,101842.13
2022-10-06T21:32:38.414Z,101861.41
2022-10-06T21:35:08.346Z,101874.06
2022-10-06T21:37:37.509Z,101871.88
2022-10-06T21:40:05.992Z,101860.47
2022-10-06T21:42:33.910Z,101875.06
2022-10-06T21:45:01.893Z,101862.75
2022-10-06T21:47:30.018Z,101861.72
2022-10-06T21:49:57.841Z,101865.16
2022-10-06T21:52:26.047Z,101866.88
2022-10-06T21:54:55.381Z,101846.03
2022-10-06T21:57:23.234Z,101810.88
2022-10-06T21:59:51.030Z,101862.13
2022-10-06T22:02:18.838Z,101866.53
2022-10-06T22:04:46.641Z,101853.25
2022-10-06T22:07:14.450Z,101847.41
2022-10-06T22:09:42.392Z,101855.34
2022-10-06T22:12:11.478Z,101853.28
2022-10-06T22:14:39.328Z,101852.13
2022-10-06T22:17:07.456Z,101862.06
2022-10-06T22:19:35.237Z,101860.94
2022-10-06T22:22:03.010Z,101858.63
2022-10-06T22:24:30.725Z,101866.03
2022-10-06T22:26:58.742Z,101860.78
2022-10-06T22:29:28.090Z,101853.75
2022-10-06T22:31:57.727Z,101856.59
2022-10-06T22:34:25.862Z,101852.13
2022-10-06T22:36:53.596Z,101848.91
2022-10-06T22:39:21.347Z,101855.00
2022-10-06T22:41:49.117Z,101841.75
2022-10-06T22:44:17.733Z,101832.81
2022-10-06T22:46:48.059Z,101838.19
2022-10-06T22:49:15.923Z,101841.56
2022-10-06T22:51:43.757Z,101838.69
2022-10-06T22:54:18.731Z,101840.31
2022-10-06T22:56:46.775Z,101837.63
2022-10-06T22:59:14.558Z,101792.94
2022-10-06T23:01:42.428Z,101821.88
2022-10-06T23:04:11.521Z,101828.09
2022-10-06T23:06:39.261Z,101829.75
2022-10-06T23:09:07.076Z,101819.16
2022-10-06T23:11:34.895Z,101818.78
2022-10-06T23:14:02.601Z,101807.31
2022-10-06T23:16:30.501Z,101808.94
2022-10-06T23:18:58.720Z,101809.25
2022-10-06T23:21:28.037Z,101797.72
2022-10-06T23:23:59.055Z,101801.97
2022-10-06T23:26:27.511Z,101810.97
2022-10-06T23:28:58.970Z,101802.47
2022-10-06T23:31:28.040Z,101806.72
2022-10-06T23:33:56.179Z,101805.41
2022-10-06T23:36:24.046Z,101806.50
2022-10-06T23:38:53.240Z,101795.31
2022-10-06T23:41:22.646Z,101808.25
2022-10-06T23:43:50.548Z,101797.41
2022-10-06T23:46:18.702Z,101802.56
2022-10-06T23:48:46.632Z,101793.22
2022-10-06T23:51:16.273Z,101797.16
2022-10-06T23:53:44.482Z,101801.88
2022-10-06T23:56:14.325Z,101797.06
2022-10-06T23:58:42.755Z,101791.56
